sensor_id;sensor_type;location;lat;lon;timestamp;P1;durP1;ratioP1;P2;durP2;ratioP2
55633;SDS011;41504;53.162;6.788;2023-08-06T00:00:55;7.78;;;4.80;;
55633;SDS011;41504;53.162;6.788;2023-08-06T00:03:21;12.30;;;5.90;;
55633;SDS011;41504;53.162;6.788;2023-08-06T00:05:46;8.68;;;5.65;;
55633;SDS011;41504;53.162;6.788;2023-08-06T00:08:12;8.85;;;5.82;;
55633;SDS011;41504;53.162;6.788;2023-08-06T00:10:39;9.63;;;5.75;;
55633;SDS011;41504;53.162;6.788;2023-08-06T00:13:09;9.38;;;5.60;;
55633;SDS011;41504;53.162;6.788;2023-08-06T00:15:35;9.38;;;5.95;;
55633;SDS011;41504;53.162;6.788;2023-08-06T00:18:00;7.53;;;5.65;;
55633;SDS011;41504;53.162;6.788;2023-08-06T00:20:26;9.77;;;6.10;;
55633;SDS011;41504;53.162;6.788;2023-08-06T00:22:52;8.82;;;5.88;;
55633;SDS011;41504;53.162;6.788;2023-08-06T00:25:17;7.72;;;5.85;;
55633;SDS011;41504;53.162;6.788;2023-08-06T00:27:43;9.48;;;6.18;;
55633;SDS011;41504;53.162;6.788;2023-08-06T00:30:09;8.15;;;6.13;;
55633;SDS011;41504;53.162;6.788;2023-08-06T00:32:35;9.10;;;7.28;;
55633;SDS011;41504;53.162;6.788;2023-08-06T00:35:02;9.70;;;7.13;;
55633;SDS011;41504;53.162;6.788;2023-08-06T00:37:29;11.35;;;7.07;;
55633;SDS011;41504;53.162;6.788;2023-08-06T00:39:55;9.80;;;7.10;;
55633;SDS011;41504;53.162;6.788;2023-08-06T00:42:21;12.10;;;7.10;;
55633;SDS011;41504;53.162;6.788;2023-08-06T00:44:48;12.05;;;7.90;;
55633;SDS011;41504;53.162;6.788;2023-08-06T00:47:14;10.63;;;8.45;;
55633;SDS011;41504;53.162;6.788;2023-08-06T00:49:40;9.77;;;7.95;;
55633;SDS011;41504;53.162;6.788;2023-08-06T00:52:09;10.27;;;7.43;;
55633;SDS011;41504;53.162;6.788;2023-08-06T00:54:35;10.75;;;8.48;;
55633;SDS011;41504;53.162;6.788;2023-08-06T00:57:04;11.52;;;8.35;;
55633;SDS011;41504;53.162;6.788;2023-08-06T00:59:34;10.43;;;8.07;;
55633;SDS011;41504;53.162;6.788;2023-08-06T01:02:00;13.30;;;9.98;;
55633;SDS011;41504;53.162;6.788;2023-08-06T01:04:29;12.05;;;9.20;;
55633;SDS011;41504;53.162;6.788;2023-08-06T01:12:59;11.73;;;9.57;;
55633;SDS011;41504;53.162;6.788;2023-08-06T01:15:49;12.20;;;9.68;;
55633;SDS011;41504;53.162;6.788;2023-08-06T01:18:16;10.68;;;9.48;;
55633;SDS011;41504;53.162;6.788;2023-08-06T01:20:42;12.40;;;9.43;;
55633;SDS011;41504;53.162;6.788;2023-08-06T01:23:11;13.27;;;10.25;;
55633;SDS011;41504;53.162;6.788;2023-08-06T01:31:34;11.60;;;9.70;;
55633;SDS011;41504;53.162;6.788;2023-08-06T01:34:03;13.15;;;9.70;;
55633;SDS011;41504;53.162;6.788;2023-08-06T01:36:31;13.70;;;11.38;;
55633;SDS011;41504;53.162;6.788;2023-08-06T01:38:57;13.57;;;11.40;;
55633;SDS011;41504;53.162;6.788;2023-08-06T01:41:23;14.43;;;10.32;;
55633;SDS011;41504;53.162;6.788;2023-08-06T01:43:52;14.63;;;11.18;;
55633;SDS011;41504;53.162;6.788;2023-08-06T01:46:17;13.10;;;11.32;;
55633;SDS011;41504;53.162;6.788;2023-08-06T01:48:43;12.52;;;9.80;;
55633;SDS011;41504;53.162;6.788;2023-08-06T01:51:09;14.15;;;10.05;;
55633;SDS011;41504;53.162;6.788;2023-08-06T01:53:34;12.25;;;10.40;;
55633;SDS011;41504;53.162;6.788;2023-08-06T01:56:00;12.52;;;10.23;;
55633;SDS011;41504;53.162;6.788;2023-08-06T01:58:26;12.20;;;10.25;;
55633;SDS011;41504;53.162;6.788;2023-08-06T02:00:52;13.75;;;10.38;;
55633;SDS011;41504;53.162;6.788;2023-08-06T02:03:17;12.70;;;10.05;;
55633;SDS011;41504;53.162;6.788;2023-08-06T02:05:43;13.70;;;10.15;;
55633;SDS011;41504;53.162;6.788;2023-08-06T02:08:10;11.57;;;10.10;;
55633;SDS011;41504;53.162;6.788;2023-08-06T02:10:39;13.05;;;10.38;;
55633;SDS011;41504;53.162;6.788;2023-08-06T02:13:05;15.10;;;11.40;;
55633;SDS011;41504;53.162;6.788;2023-08-06T02:15:31;13.75;;;12.07;;
55633;SDS011;41504;53.162;6.788;2023-08-06T02:17:56;13.02;;;10.82;;
55633;SDS011;41504;53.162;6.788;2023-08-06T02:20:22;13.07;;;11.05;;
55633;SDS011;41504;53.162;6.788;2023-08-06T02:22:48;13.57;;;10.50;;
55633;SDS011;41504;53.162;6.788;2023-08-06T02:25:13;12.88;;;10.18;;
55633;SDS011;41504;53.162;6.788;2023-08-06T02:27:39;14.77;;;11.60;;
55633;SDS011;41504;53.162;6.788;2023-08-06T02:30:05;14.82;;;10.77;;
55633;SDS011;41504;53.162;6.788;2023-08-06T02:32:34;15.02;;;10.68;;
55633;SDS011;41504;53.162;6.788;2023-08-06T02:35:01;14.20;;;11.20;;
55633;SDS011;41504;53.162;6.788;2023-08-06T02:37:27;13.98;;;11.30;;
55633;SDS011;41504;53.162;6.788;2023-08-06T02:39:53;12.57;;;10.38;;
55633;SDS011;41504;53.162;6.788;2023-08-06T02:42:18;12.00;;;10.07;;
55633;SDS011;41504;53.162;6.788;2023-08-06T02:44:44;12.70;;;10.45;;
55633;SDS011;41504;53.162;6.788;2023-08-06T02:47:10;13.52;;;10.77;;
55633;SDS011;41504;53.162;6.788;2023-08-06T02:49:35;11.43;;;9.38;;
55633;SDS011;41504;53.162;6.788;2023-08-06T02:52:08;12.02;;;9.65;;
55633;SDS011;41504;53.162;6.788;2023-08-06T02:54:33;11.77;;;9.85;;
55633;SDS011;41504;53.162;6.788;2023-08-06T02:56:59;11.80;;;9.00;;
55633;SDS011;41504;53.162;6.788;2023-08-06T02:59:25;11.52;;;8.75;;
55633;SDS011;41504;53.162;6.788;2023-08-06T03:01:50;12.27;;;9.38;;
55633;SDS011;41504;53.162;6.788;2023-08-06T03:04:16;11.75;;;8.48;;
55633;SDS011;41504;53.162;6.788;2023-08-06T03:06:43;12.13;;;8.40;;
55633;SDS011;41504;53.162;6.788;2023-08-06T03:09:09;10.15;;;7.97;;
55633;SDS011;41504;53.162;6.788;2023-08-06T03:11:34;10.25;;;8.43;;
55633;SDS011;41504;53.162;6.788;2023-08-06T03:14:02;11.45;;;8.57;;
55633;SDS011;41504;53.162;6.788;2023-08-06T03:16:28;10.55;;;8.30;;
55633;SDS011;41504;53.162;6.788;2023-08-06T03:18:57;10.75;;;7.68;;
55633;SDS011;41504;53.162;6.788;2023-08-06T03:21:23;9.68;;;6.97;;
55633;SDS011;41504;53.162;6.788;2023-08-06T03:23:49;9.23;;;7.60;;
55633;SDS011;41504;53.162;6.788;2023-08-06T03:26:15;10.48;;;7.70;;
55633;SDS011;41504;53.162;6.788;2023-08-06T03:28:40;10.57;;;7.80;;
55633;SDS011;41504;53.162;6.788;2023-08-06T03:31:09;10.07;;;7.78;;
55633;SDS011;41504;53.162;6.788;2023-08-06T03:33:35;10.30;;;7.82;;
55633;SDS011;41504;53.162;6.788;2023-08-06T03:36:04;7.50;;;6.20;;
55633;SDS011;41504;53.162;6.788;2023-08-06T03:38:29;10.13;;;7.32;;
55633;SDS011;41504;53.162;6.788;2023-08-06T03:41:01;10.07;;;7.18;;
55633;SDS011;41504;53.162;6.788;2023-08-06T03:43:27;10.70;;;7.22;;
55633;SDS011;41504;53.162;6.788;2023-08-06T03:45:52;10.43;;;7.40;;
55633;SDS011;41504;53.162;6.788;2023-08-06T03:48:18;10.10;;;7.30;;
55633;SDS011;41504;53.162;6.788;2023-08-06T03:50:44;10.25;;;7.63;;
55633;SDS011;41504;53.162;6.788;2023-08-06T03:53:09;11.25;;;7.55;;
55633;SDS011;41504;53.162;6.788;2023-08-06T03:55:35;11.60;;;7.45;;
55633;SDS011;41504;53.162;6.788;2023-08-06T03:58:04;9.52;;;7.63;;
55633;SDS011;41504;53.162;6.788;2023-08-06T04:00:29;9.98;;;7.57;;
55633;SDS011;41504;53.162;6.788;2023-08-06T04:02:55;11.63;;;7.78;;
55633;SDS011;41504;53.162;6.788;2023-08-06T04:05:21;10.98;;;7.75;;
55633;SDS011;41504;53.162;6.788;2023-08-06T04:07:46;11.43;;;8.02;;
55633;SDS011;41504;53.162;6.788;2023-08-06T04:10:12;9.50;;;7.18;;
55633;SDS011;41504;53.162;6.788;2023-08-06T04:12:38;12.55;;;8.50;;
55633;SDS011;41504;53.162;6.788;2023-08-06T04:15:04;9.07;;;6.78;;
55633;SDS011;41504;53.162;6.788;2023-08-06T04:17:30;10.02;;;7.25;;
55633;SDS011;41504;53.162;6.788;2023-08-06T04:19:56;9.93;;;7.30;;
55633;SDS011;41504;53.162;6.788;2023-08-06T04:22:25;10.25;;;8.02;;
55633;SDS011;41504;53.162;6.788;2023-08-06T04:24:50;10.27;;;7.85;;
55633;SDS011;41504;53.162;6.788;2023-08-06T04:27:17;13.05;;;7.85;;
55633;SDS011;41504;53.162;6.788;2023-08-06T04:29:44;12.30;;;8.15;;
55633;SDS011;41504;53.162;6.788;2023-08-06T04:32:10;11.77;;;8.25;;
55633;SDS011;41504;53.162;6.788;2023-08-06T04:34:36;11.88;;;7.60;;
55633;SDS011;41504;53.162;6.788;2023-08-06T04:37:03;11.93;;;8.00;;
55633;SDS011;41504;53.162;6.788;2023-08-06T04:39:29;10.63;;;8.32;;
55633;SDS011;41504;53.162;6.788;2023-08-06T04:41:55;9.63;;;7.60;;
55633;SDS011;41504;53.162;6.788;2023-08-06T04:44:22;12.85;;;8.50;;
55633;SDS011;41504;53.162;6.788;2023-08-06T04:46:48;10.80;;;7.82;;
55633;SDS011;41504;53.162;6.788;2023-08-06T04:49:14;11.18;;;8.65;;
55633;SDS011;41504;53.162;6.788;2023-08-06T04:51:40;12.32;;;8.52;;
55633;SDS011;41504;53.162;6.788;2023-08-06T04:54:09;12.43;;;8.18;;
55633;SDS011;41504;53.162;6.788;2023-08-06T04:56:35;11.60;;;8.73;;
55633;SDS011;41504;53.162;6.788;2023-08-06T04:59:01;11.10;;;8.13;;
55633;SDS011;41504;53.162;6.788;2023-08-06T05:01:26;11.00;;;9.10;;
55633;SDS011;41504;53.162;6.788;2023-08-06T05:03:53;12.07;;;9.25;;
55633;SDS011;41504;53.162;6.788;2023-08-06T05:06:19;11.68;;;8.95;;
55633;SDS011;41504;53.162;6.788;2023-08-06T05:08:45;11.23;;;8.68;;
55633;SDS011;41504;53.162;6.788;2023-08-06T05:11:10;10.85;;;8.25;;
55633;SDS011;41504;53.162;6.788;2023-08-06T05:13:39;10.50;;;8.07;;
55633;SDS011;41504;53.162;6.788;2023-08-06T05:16:05;12.43;;;9.43;;
55633;SDS011;41504;53.162;6.788;2023-08-06T05:18:30;12.85;;;9.18;;
55633;SDS011;41504;53.162;6.788;2023-08-06T05:20:56;12.30;;;9.18;;
55633;SDS011;41504;53.162;6.788;2023-08-06T05:23:22;11.98;;;9.43;;
55633;SDS011;41504;53.162;6.788;2023-08-06T05:25:48;11.75;;;8.63;;
55633;SDS011;41504;53.162;6.788;2023-08-06T05:28:13;11.45;;;8.48;;
55633;SDS011;41504;53.162;6.788;2023-08-06T05:30:42;12.23;;;8.65;;
55633;SDS011;41504;53.162;6.788;2023-08-06T05:33:08;12.13;;;8.65;;
55633;SDS011;41504;53.162;6.788;2023-08-06T05:35:33;10.45;;;8.00;;
55633;SDS011;41504;53.162;6.788;2023-08-06T05:37:59;9.60;;;7.80;;
55633;SDS011;41504;53.162;6.788;2023-08-06T05:40:25;11.65;;;8.15;;
55633;SDS011;41504;53.162;6.788;2023-08-06T05:42:54;9.55;;;7.63;;
55633;SDS011;41504;53.162;6.788;2023-08-06T05:45:20;11.25;;;8.65;;
55633;SDS011;41504;53.162;6.788;2023-08-06T05:47:49;11.65;;;9.00;;
55633;SDS011;41504;53.162;6.788;2023-08-06T05:50:15;12.02;;;8.98;;
55633;SDS011;41504;53.162;6.788;2023-08-06T05:52:40;14.90;;;8.93;;
55633;SDS011;41504;53.162;6.788;2023-08-06T05:55:06;12.27;;;9.38;;
55633;SDS011;41504;53.162;6.788;2023-08-06T05:57:32;11.18;;;8.07;;
55633;SDS011;41504;53.162;6.788;2023-08-06T05:59:58;14.18;;;9.00;;
55633;SDS011;41504;53.162;6.788;2023-08-06T06:02:24;11.68;;;8.13;;
55633;SDS011;41504;53.162;6.788;2023-08-06T06:04:50;11.75;;;8.93;;
55633;SDS011;41504;53.162;6.788;2023-08-06T06:07:15;12.80;;;8.68;;
55633;SDS011;41504;53.162;6.788;2023-08-06T06:09:41;12.10;;;9.18;;
55633;SDS011;41504;53.162;6.788;2023-08-06T06:12:07;11.85;;;9.13;;
55633;SDS011;41504;53.162;6.788;2023-08-06T06:14:32;11.45;;;8.18;;
55633;SDS011;41504;53.162;6.788;2023-08-06T06:16:58;12.38;;;9.55;;
55633;SDS011;41504;53.162;6.788;2023-08-06T06:19:25;12.35;;;9.25;;
55633;SDS011;41504;53.162;6.788;2023-08-06T06:21:51;13.55;;;9.73;;
55633;SDS011;41504;53.162;6.788;2023-08-06T06:24:17;12.95;;;8.82;;
55633;SDS011;41504;53.162;6.788;2023-08-06T06:26:42;12.13;;;9.35;;
55633;SDS011;41504;53.162;6.788;2023-08-06T06:29:08;11.20;;;8.50;;
55633;SDS011;41504;53.162;6.788;2023-08-06T06:31:34;11.65;;;9.27;;
55633;SDS011;41504;53.162;6.788;2023-08-06T06:34:00;12.13;;;8.63;;
55633;SDS011;41504;53.162;6.788;2023-08-06T06:36:26;11.45;;;8.48;;
55633;SDS011;41504;53.162;6.788;2023-08-06T06:38:51;11.90;;;8.55;;
55633;SDS011;41504;53.162;6.788;2023-08-06T06:41:17;10.10;;;8.00;;
55633;SDS011;41504;53.162;6.788;2023-08-06T06:43:44;10.27;;;7.78;;
55633;SDS011;41504;53.162;6.788;2023-08-06T06:46:09;13.13;;;8.50;;
55633;SDS011;41504;53.162;6.788;2023-08-06T06:48:35;13.40;;;8.55;;
55633;SDS011;41504;53.162;6.788;2023-08-06T06:51:04;12.05;;;9.13;;
55633;SDS011;41504;53.162;6.788;2023-08-06T06:53:30;9.85;;;8.23;;
55633;SDS011;41504;53.162;6.788;2023-08-06T06:55:56;11.02;;;7.72;;
55633;SDS011;41504;53.162;6.788;2023-08-06T06:58:26;8.93;;;7.35;;
55633;SDS011;41504;53.162;6.788;2023-08-06T07:00:52;9.20;;;7.22;;
55633;SDS011;41504;53.162;6.788;2023-08-06T07:03:19;9.13;;;7.00;;
55633;SDS011;41504;53.162;6.788;2023-08-06T07:05:45;11.68;;;7.70;;
55633;SDS011;41504;53.162;6.788;2023-08-06T07:08:14;9.27;;;6.82;;
55633;SDS011;41504;53.162;6.788;2023-08-06T07:10:40;10.80;;;8.05;;
55633;SDS011;41504;53.162;6.788;2023-08-06T07:13:07;10.60;;;8.05;;
55633;SDS011;41504;53.162;6.788;2023-08-06T07:15:33;12.65;;;8.00;;
55633;SDS011;41504;53.162;6.788;2023-08-06T07:17:58;10.82;;;7.53;;
55633;SDS011;41504;53.162;6.788;2023-08-06T07:20:24;8.98;;;6.97;;
55633;SDS011;41504;53.162;6.788;2023-08-06T07:22:50;10.98;;;7.60;;
55633;SDS011;41504;53.162;6.788;2023-08-06T07:25:16;8.63;;;7.07;;
55633;SDS011;41504;53.162;6.788;2023-08-06T07:27:42;8.35;;;6.90;;
55633;SDS011;41504;53.162;6.788;2023-08-06T07:30:08;10.65;;;7.65;;
55633;SDS011;41504;53.162;6.788;2023-08-06T07:32:33;10.15;;;8.05;;
55633;SDS011;41504;53.162;6.788;2023-08-06T07:34:59;11.48;;;7.80;;
55633;SDS011;41504;53.162;6.788;2023-08-06T07:37:29;9.55;;;7.68;;
55633;SDS011;41504;53.162;6.788;2023-08-06T07:39:58;9.27;;;7.82;;
55633;SDS011;41504;53.162;6.788;2023-08-06T07:42:23;10.95;;;8.05;;
55633;SDS011;41504;53.162;6.788;2023-08-06T07:44:51;9.00;;;7.78;;
55633;SDS011;41504;53.162;6.788;2023-08-06T07:47:21;9.45;;;7.45;;
55633;SDS011;41504;53.162;6.788;2023-08-06T07:49:47;10.15;;;8.10;;
55633;SDS011;41504;53.162;6.788;2023-08-06T07:52:12;9.68;;;7.97;;
55633;SDS011;41504;53.162;6.788;2023-08-06T07:54:38;11.90;;;7.47;;
55633;SDS011;41504;53.162;6.788;2023-08-06T07:57:04;9.35;;;7.28;;
55633;SDS011;41504;53.162;6.788;2023-08-06T07:59:30;11.43;;;7.97;;
55633;SDS011;41504;53.162;6.788;2023-08-06T08:01:56;10.82;;;7.88;;
55633;SDS011;41504;53.162;6.788;2023-08-06T08:04:23;10.30;;;8.00;;
55633;SDS011;41504;53.162;6.788;2023-08-06T08:06:49;8.85;;;7.63;;
55633;SDS011;41504;53.162;6.788;2023-08-06T08:09:15;11.23;;;8.80;;
55633;SDS011;41504;53.162;6.788;2023-08-06T08:11:41;11.80;;;8.60;;
55633;SDS011;41504;53.162;6.788;2023-08-06T08:14:07;9.00;;;7.88;;
55633;SDS011;41504;53.162;6.788;2023-08-06T08:16:33;9.52;;;7.30;;
55633;SDS011;41504;53.162;6.788;2023-08-06T08:18:59;11.05;;;7.85;;
55633;SDS011;41504;53.162;6.788;2023-08-06T08:21:25;10.65;;;8.32;;
55633;SDS011;41504;53.162;6.788;2023-08-06T08:23:51;8.68;;;7.72;;
55633;SDS011;41504;53.162;6.788;2023-08-06T08:26:16;8.95;;;7.47;;
55633;SDS011;41504;53.162;6.788;2023-08-06T08:28:42;10.75;;;7.47;;
55633;SDS011;41504;53.162;6.788;2023-08-06T08:31:08;9.80;;;7.63;;
55633;SDS011;41504;53.162;6.788;2023-08-06T08:33:34;7.88;;;6.63;;
55633;SDS011;41504;53.162;6.788;2023-08-06T08:36:00;7.88;;;6.20;;
55633;SDS011;41504;53.162;6.788;2023-08-06T08:38:26;8.63;;;5.90;;
55633;SDS011;41504;53.162;6.788;2023-08-06T08:40:53;8.82;;;5.80;;
55633;SDS011;41504;53.162;6.788;2023-08-06T08:43:22;7.57;;;5.60;;
55633;SDS011;41504;53.162;6.788;2023-08-06T08:45:52;9.32;;;5.93;;
55633;SDS011;41504;53.162;6.788;2023-08-06T08:48:25;9.00;;;5.72;;
55633;SDS011;41504;53.162;6.788;2023-08-06T08:50:55;7.13;;;4.95;;
55633;SDS011;41504;53.162;6.788;2023-08-06T08:53:21;6.72;;;5.00;;
55633;SDS011;41504;53.162;6.788;2023-08-06T08:55:50;6.53;;;4.95;;
55633;SDS011;41504;53.162;6.788;2023-08-06T08:58:17;6.93;;;5.03;;
55633;SDS011;41504;53.162;6.788;2023-08-06T09:00:44;6.70;;;4.47;;
55633;SDS011;41504;53.162;6.788;2023-08-06T09:03:11;6.85;;;4.50;;
55633;SDS011;41504;53.162;6.788;2023-08-06T09:05:37;5.80;;;4.45;;
55633;SDS011;41504;53.162;6.788;2023-08-06T09:08:09;7.93;;;4.78;;
55633;SDS011;41504;53.162;6.788;2023-08-06T09:10:39;6.47;;;4.50;;
55633;SDS011;41504;53.162;6.788;2023-08-06T09:13:09;7.15;;;3.58;;
55633;SDS011;41504;53.162;6.788;2023-08-06T09:15:37;5.50;;;3.80;;
55633;SDS011;41504;53.162;6.788;2023-08-06T09:18:09;5.55;;;3.60;;
55633;SDS011;41504;53.162;6.788;2023-08-06T09:20:36;6.13;;;4.38;;
55633;SDS011;41504;53.162;6.788;2023-08-06T09:23:09;5.57;;;3.25;;
55633;SDS011;41504;53.162;6.788;2023-08-06T09:25:38;7.70;;;3.50;;
55633;SDS011;41504;53.162;6.788;2023-08-06T09:28:05;5.25;;;3.30;;
55633;SDS011;41504;53.162;6.788;2023-08-06T09:30:35;5.38;;;2.97;;
55633;SDS011;41504;53.162;6.788;2023-08-06T09:33:17;4.80;;;2.90;;
55633;SDS011;41504;53.162;6.788;2023-08-06T09:35:45;4.50;;;2.85;;
55633;SDS011;41504;53.162;6.788;2023-08-06T09:38:12;5.68;;;2.83;;
55633;SDS011;41504;53.162;6.788;2023-08-06T09:40:38;6.38;;;2.90;;
55633;SDS011;41504;53.162;6.788;2023-08-06T09:43:04;4.95;;;2.70;;
55633;SDS011;41504;53.162;6.788;2023-08-06T09:45:34;6.32;;;2.70;;
55633;SDS011;41504;53.162;6.788;2023-08-06T09:48:05;4.78;;;2.30;;
55633;SDS011;41504;53.162;6.788;2023-08-06T09:50:36;5.00;;;2.40;;
55633;SDS011;41504;53.162;6.788;2023-08-06T09:53:09;4.10;;;2.10;;
55633;SDS011;41504;53.162;6.788;2023-08-06T09:55:35;5.95;;;2.20;;
55633;SDS011;41504;53.162;6.788;2023-08-06T09:58:04;5.05;;;2.33;;
55633;SDS011;41504;53.162;6.788;2023-08-06T10:00:31;5.63;;;2.38;;
55633;SDS011;41504;53.162;6.788;2023-08-06T10:02:59;3.83;;;2.25;;
55633;SDS011;41504;53.162;6.788;2023-08-06T10:05:26;5.82;;;2.40;;
55633;SDS011;41504;53.162;6.788;2023-08-06T10:07:52;4.20;;;2.30;;
55633;SDS011;41504;53.162;6.788;2023-08-06T10:10:18;4.80;;;2.40;;
55633;SDS011;41504;53.162;6.788;2023-08-06T10:12:48;4.57;;;2.40;;
55633;SDS011;41504;53.162;6.788;2023-08-06T10:15:17;5.30;;;2.30;;
55633;SDS011;41504;53.162;6.788;2023-08-06T10:17:47;4.53;;;2.08;;
55633;SDS011;41504;53.162;6.788;2023-08-06T10:20:16;4.30;;;2.20;;
55633;SDS011;41504;53.162;6.788;2023-08-06T10:22:43;4.13;;;2.30;;
55633;SDS011;41504;53.162;6.788;2023-08-06T10:25:10;4.47;;;2.35;;
55633;SDS011;41504;53.162;6.788;2023-08-06T10:27:53;4.15;;;2.10;;
55633;SDS011;41504;53.162;6.788;2023-08-06T10:30:30;4.28;;;2.35;;
55633;SDS011;41504;53.162;6.788;2023-08-06T10:32:57;5.28;;;2.97;;
55633;SDS011;41504;53.162;6.788;2023-08-06T10:35:31;4.63;;;2.30;;
55633;SDS011;41504;53.162;6.788;2023-08-06T10:38:19;4.18;;;2.45;;
55633;SDS011;41504;53.162;6.788;2023-08-06T10:43:25;4.95;;;2.20;;
55633;SDS011;41504;53.162;6.788;2023-08-06T10:45:57;4.57;;;2.40;;
55633;SDS011;41504;53.162;6.788;2023-08-06T10:51:09;5.15;;;2.42;;
55633;SDS011;41504;53.162;6.788;2023-08-06T10:53:37;3.67;;;2.00;;
55633;SDS011;41504;53.162;6.788;2023-08-06T10:56:15;4.70;;;2.30;;
55633;SDS011;41504;53.162;6.788;2023-08-06T10:58:50;4.55;;;2.30;;
55633;SDS011;41504;53.162;6.788;2023-08-06T11:01:16;4.10;;;2.20;;
55633;SDS011;41504;53.162;6.788;2023-08-06T11:03:43;3.95;;;2.45;;
55633;SDS011;41504;53.162;6.788;2023-08-06T11:06:10;3.70;;;2.00;;
55633;SDS011;41504;53.162;6.788;2023-08-06T11:08:46;4.07;;;2.22;;
55633;SDS011;41504;53.162;6.788;2023-08-06T11:11:14;4.95;;;2.25;;
55633;SDS011;41504;53.162;6.788;2023-08-06T11:13:41;4.00;;;2.20;;
55633;SDS011;41504;53.162;6.788;2023-08-06T11:16:12;5.22;;;2.13;;
55633;SDS011;41504;53.162;6.788;2023-08-06T11:18:42;3.92;;;2.10;;
55633;SDS011;41504;53.162;6.788;2023-08-06T11:21:08;4.50;;;2.25;;
55633;SDS011;41504;53.162;6.788;2023-08-06T11:23:35;4.03;;;2.03;;
55633;SDS011;41504;53.162;6.788;2023-08-06T11:26:01;3.58;;;2.00;;
55633;SDS011;41504;53.162;6.788;2023-08-06T11:28:28;3.97;;;2.20;;
55633;SDS011;41504;53.162;6.788;2023-08-06T11:30:54;3.75;;;2.13;;
55633;SDS011;41504;53.162;6.788;2023-08-06T11:33:29;3.72;;;2.00;;
55633;SDS011;41504;53.162;6.788;2023-08-06T11:35:58;4.80;;;2.30;;
55633;SDS011;41504;53.162;6.788;2023-08-06T11:38:25;4.45;;;2.20;;
55633;SDS011;41504;53.162;6.788;2023-08-06T11:40:52;4.20;;;2.10;;
55633;SDS011;41504;53.162;6.788;2023-08-06T11:43:18;3.65;;;2.10;;
55633;SDS011;41504;53.162;6.788;2023-08-06T11:45:47;4.20;;;2.20;;
55633;SDS011;41504;53.162;6.788;2023-08-06T11:48:19;4.13;;;2.08;;
55633;SDS011;41504;53.162;6.788;2023-08-06T11:50:44;4.00;;;2.05;;
55633;SDS011;41504;53.162;6.788;2023-08-06T11:53:14;5.03;;;2.20;;
55633;SDS011;41504;53.162;6.788;2023-08-06T11:55:40;9.55;;;7.22;;
55633;SDS011;41504;53.162;6.788;2023-08-06T11:58:09;5.85;;;2.42;;
55633;SDS011;41504;53.162;6.788;2023-08-06T12:00:39;3.88;;;2.00;;
55633;SDS011;41504;53.162;6.788;2023-08-06T12:03:05;3.83;;;2.10;;
55633;SDS011;41504;53.162;6.788;2023-08-06T12:05:35;3.53;;;1.90;;
55633;SDS011;41504;53.162;6.788;2023-08-06T12:08:01;3.53;;;2.10;;
55633;SDS011;41504;53.162;6.788;2023-08-06T12:10:29;4.65;;;2.08;;
55633;SDS011;41504;53.162;6.788;2023-08-06T12:12:56;4.28;;;2.00;;
55633;SDS011;41504;53.162;6.788;2023-08-06T12:15:22;4.05;;;2.20;;
55633;SDS011;41504;53.162;6.788;2023-08-06T12:17:49;3.92;;;1.70;;
55633;SDS011;41504;53.162;6.788;2023-08-06T12:20:15;3.70;;;2.00;;
55633;SDS011;41504;53.162;6.788;2023-08-06T12:22:41;4.10;;;1.92;;
55633;SDS011;41504;53.162;6.788;2023-08-06T12:25:10;3.75;;;1.80;;
55633;SDS011;41504;53.162;6.788;2023-08-06T12:27:42;4.85;;;2.25;;
55633;SDS011;41504;53.162;6.788;2023-08-06T12:30:10;3.72;;;1.80;;
55633;SDS011;41504;53.162;6.788;2023-08-06T12:32:37;3.97;;;1.98;;
55633;SDS011;41504;53.162;6.788;2023-08-06T12:35:03;3.72;;;2.13;;
55633;SDS011;41504;53.162;6.788;2023-08-06T12:37:32;5.07;;;2.15;;
55633;SDS011;41504;53.162;6.788;2023-08-06T12:39:58;3.78;;;2.10;;
55633;SDS011;41504;53.162;6.788;2023-08-06T12:42:23;3.65;;;1.88;;
55633;SDS011;41504;53.162;6.788;2023-08-06T12:44:49;3.67;;;1.88;;
55633;SDS011;41504;53.162;6.788;2023-08-06T12:47:16;4.15;;;1.80;;
55633;SDS011;41504;53.162;6.788;2023-08-06T12:49:42;4.38;;;2.10;;
55633;SDS011;41504;53.162;6.788;2023-08-06T12:52:11;3.95;;;2.10;;
55633;SDS011;41504;53.162;6.788;2023-08-06T12:54:40;3.45;;;2.00;;
55633;SDS011;41504;53.162;6.788;2023-08-06T12:57:09;4.47;;;2.00;;
55633;SDS011;41504;53.162;6.788;2023-08-06T12:59:35;4.15;;;2.13;;
55633;SDS011;41504;53.162;6.788;2023-08-06T13:02:01;3.72;;;1.73;;
55633;SDS011;41504;53.162;6.788;2023-08-06T13:04:28;3.38;;;1.90;;
55633;SDS011;41504;53.162;6.788;2023-08-06T13:06:53;4.47;;;2.10;;
55633;SDS011;41504;53.162;6.788;2023-08-06T13:09:19;2.78;;;1.80;;
55633;SDS011;41504;53.162;6.788;2023-08-06T13:11:45;4.88;;;2.10;;
55633;SDS011;41504;53.162;6.788;2023-08-06T13:14:12;3.92;;;2.13;;
55633;SDS011;41504;53.162;6.788;2023-08-06T13:16:40;5.55;;;2.10;;
55633;SDS011;41504;53.162;6.788;2023-08-06T13:19:12;3.58;;;1.90;;
55633;SDS011;41504;53.162;6.788;2023-08-06T13:24:07;4.55;;;1.80;;
55633;SDS011;41504;53.162;6.788;2023-08-06T13:26:33;3.60;;;1.90;;
55633;SDS011;41504;53.162;6.788;2023-08-06T13:29:05;3.65;;;1.90;;
55633;SDS011;41504;53.162;6.788;2023-08-06T13:31:32;4.03;;;1.98;;
55633;SDS011;41504;53.162;6.788;2023-08-06T13:33:58;3.65;;;2.10;;
55633;SDS011;41504;53.162;6.788;2023-08-06T13:36:27;4.47;;;2.10;;
55633;SDS011;41504;53.162;6.788;2023-08-06T13:38:56;3.90;;;1.83;;
55633;SDS011;41504;53.162;6.788;2023-08-06T13:41:22;4.53;;;2.25;;
55633;SDS011;41504;53.162;6.788;2023-08-06T13:43:55;3.45;;;2.00;;
55633;SDS011;41504;53.162;6.788;2023-08-06T13:46:21;4.07;;;2.10;;
55633;SDS011;41504;53.162;6.788;2023-08-06T13:48:52;3.92;;;1.90;;
55633;SDS011;41504;53.162;6.788;2023-08-06T13:51:18;3.33;;;1.88;;
55633;SDS011;41504;53.162;6.788;2023-08-06T13:53:44;3.95;;;2.17;;
55633;SDS011;41504;53.162;6.788;2023-08-06T13:56:10;4.80;;;2.10;;
55633;SDS011;41504;53.162;6.788;2023-08-06T13:58:40;3.80;;;2.03;;
55633;SDS011;41504;53.162;6.788;2023-08-06T14:01:05;4.15;;;1.90;;
55633;SDS011;41504;53.162;6.788;2023-08-06T14:03:34;4.10;;;1.95;;
55633;SDS011;41504;53.162;6.788;2023-08-06T14:06:00;3.95;;;2.10;;
55633;SDS011;41504;53.162;6.788;2023-08-06T14:08:26;4.13;;;2.00;;
55633;SDS011;41504;53.162;6.788;2023-08-06T14:10:52;5.47;;;1.95;;
55633;SDS011;41504;53.162;6.788;2023-08-06T14:13:18;3.60;;;1.90;;
55633;SDS011;41504;53.162;6.788;2023-08-06T14:15:43;3.72;;;2.00;;
55633;SDS011;41504;53.162;6.788;2023-08-06T14:18:13;4.50;;;2.00;;
55633;SDS011;41504;53.162;6.788;2023-08-06T14:20:40;4.55;;;1.85;;
55633;SDS011;41504;53.162;6.788;2023-08-06T14:23:09;4.75;;;1.90;;
55633;SDS011;41504;53.162;6.788;2023-08-06T14:25:35;3.78;;;2.17;;
55633;SDS011;41504;53.162;6.788;2023-08-06T14:28:04;3.67;;;1.77;;
55633;SDS011;41504;53.162;6.788;2023-08-06T14:30:34;3.72;;;2.03;;
55633;SDS011;41504;53.162;6.788;2023-08-06T14:33:04;5.05;;;2.22;;
55633;SDS011;41504;53.162;6.788;2023-08-06T14:35:30;4.25;;;1.90;;
55633;SDS011;41504;53.162;6.788;2023-08-06T14:37:56;3.70;;;2.03;;
55633;SDS011;41504;53.162;6.788;2023-08-06T14:40:22;4.68;;;2.15;;
55633;SDS011;41504;53.162;6.788;2023-08-06T14:42:48;4.85;;;2.30;;
55633;SDS011;41504;53.162;6.788;2023-08-06T14:45:13;3.08;;;1.80;;
55633;SDS011;41504;53.162;6.788;2023-08-06T14:47:42;3.72;;;2.10;;
55633;SDS011;41504;53.162;6.788;2023-08-06T14:50:08;4.18;;;1.90;;
55633;SDS011;41504;53.162;6.788;2023-08-06T14:52:33;3.92;;;2.05;;
55633;SDS011;41504;53.162;6.788;2023-08-06T14:55:00;3.53;;;2.20;;
55633;SDS011;41504;53.162;6.788;2023-08-06T14:57:27;4.82;;;2.33;;
55633;SDS011;41504;53.162;6.788;2023-08-06T14:59:53;4.20;;;2.00;;